Riudoms, Spain
Current Conditions -  °F | °C
As of 11:00 AM on Tuesday 27 Jan 2015 (Local Time) from LERS Reporting Station
Few Clouds Few Clouds  
Wind Chill: 52°   Ceiling: Unl
Heat Index: 52°   Visibility: 6mi
Dew Point: 41°   Wind: 20mph
Humidity: 67%   Direction: 290°WNW
Pressure: 30.18"   Gusts: NA
Location:  41.13°N, 1.05°E
Report Text: LERS 271000Z 29017KT 260V330 9999 FEW025 11/05 Q1022
Loading
Personal Weather Stations






























Interactive Weather Map New forecast layout! Learn more

10-Day Weather Forecast

Advertisements
Track Severe Weather on mobile